sensor_id;sensor_type;location;lat;lon;timestamp;temperature;humidity
17307;DHT22;8771;48.048;7.682;2024-02-21T00:03:03;8.70;75.20
17307;DHT22;8771;48.048;7.682;2024-02-21T00:08:06;8.60;75.40
17307;DHT22;8771;48.048;7.682;2024-02-21T00:13:09;8.50;75.60
17307;DHT22;8771;48.048;7.682;2024-02-21T00:18:13;8.50;75.80
17307;DHT22;8771;48.048;7.682;2024-02-21T00:23:16;8.50;76.70
17307;DHT22;8771;48.048;7.682;2024-02-21T00:28:19;8.60;76.10
17307;DHT22;8771;48.048;7.682;2024-02-21T00:33:24;8.60;75.90
17307;DHT22;8771;48.048;7.682;2024-02-21T00:38:27;8.60;76.00
17307;DHT22;8771;48.048;7.682;2024-02-21T00:43:30;8.70;76.10
17307;DHT22;8771;48.048;7.682;2024-02-21T00:48:35;8.70;76.10
17307;DHT22;8771;48.048;7.682;2024-02-21T00:53:38;8.70;76.20
17307;DHT22;8771;48.048;7.682;2024-02-21T00:58:41;8.70;76.20
17307;DHT22;8771;48.048;7.682;2024-02-21T01:03:45;8.70;76.40
17307;DHT22;8771;48.048;7.682;2024-02-21T01:08:49;8.70;76.40
17307;DHT22;8771;48.048;7.682;2024-02-21T01:13:52;8.70;76.40
17307;DHT22;8771;48.048;7.682;2024-02-21T01:18:57;8.70;76.50
17307;DHT22;8771;48.048;7.682;2024-02-21T01:24:00;8.70;76.60
17307;DHT22;8771;48.048;7.682;2024-02-21T01:29:03;8.70;76.70
17307;DHT22;8771;48.048;7.682;2024-02-21T01:34:07;8.70;76.80
17307;DHT22;8771;48.048;7.682;2024-02-21T01:39:10;8.70;77.00
17307;DHT22;8771;48.048;7.682;2024-02-21T01:44:14;8.80;76.90
17307;DHT22;8771;48.048;7.682;2024-02-21T01:49:19;8.80;77.00
17307;DHT22;8771;48.048;7.682;2024-02-21T01:54:22;8.80;77.00
17307;DHT22;8771;48.048;7.682;2024-02-21T01:59:25;8.70;76.90
17307;DHT22;8771;48.048;7.682;2024-02-21T02:04:29;8.80;77.00
17307;DHT22;8771;48.048;7.682;2024-02-21T02:09:33;8.80;76.80
17307;DHT22;8771;48.048;7.682;2024-02-21T02:14:36;8.90;76.70
17307;DHT22;8771;48.048;7.682;2024-02-21T02:19:40;9.00;76.60
17307;DHT22;8771;48.048;7.682;2024-02-21T02:24:43;9.00;76.60
17307;DHT22;8771;48.048;7.682;2024-02-21T02:29:46;9.00;76.60
17307;DHT22;8771;48.048;7.682;2024-02-21T02:34:49;9.00;76.50
17307;DHT22;8771;48.048;7.682;2024-02-21T02:39:54;9.10;76.30
17307;DHT22;8771;48.048;7.682;2024-02-21T02:44:56;9.00;76.30
17307;DHT22;8771;48.048;7.682;2024-02-21T02:49:59;9.00;76.40
17307;DHT22;8771;48.048;7.682;2024-02-21T02:55:05;9.00;76.40
17307;DHT22;8771;48.048;7.682;2024-02-21T03:00:09;8.90;76.50
17307;DHT22;8771;48.048;7.682;2024-02-21T03:05:14;8.90;76.60
17307;DHT22;8771;48.048;7.682;2024-02-21T03:10:18;8.90;76.60
17307;DHT22;8771;48.048;7.682;2024-02-21T03:15:21;8.80;76.30
17307;DHT22;8771;48.048;7.682;2024-02-21T03:20:23;8.80;76.50
17307;DHT22;8771;48.048;7.682;2024-02-21T03:25:27;8.70;76.70
17307;DHT22;8771;48.048;7.682;2024-02-21T03:30:30;8.70;76.80
17307;DHT22;8771;48.048;7.682;2024-02-21T03:35:33;8.70;77.00
17307;DHT22;8771;48.048;7.682;2024-02-21T03:40:37;8.60;77.00
17307;DHT22;8771;48.048;7.682;2024-02-21T03:45:40;8.50;77.10
17307;DHT22;8771;48.048;7.682;2024-02-21T03:50:42;8.50;77.10
17307;DHT22;8771;48.048;7.682;2024-02-21T03:55:47;8.40;77.10
17307;DHT22;8771;48.048;7.682;2024-02-21T04:00:50;8.30;77.10
17307;DHT22;8771;48.048;7.682;2024-02-21T04:05:53;8.20;77.30
17307;DHT22;8771;48.048;7.682;2024-02-21T04:10:58;8.20;77.40
17307;DHT22;8771;48.048;7.682;2024-02-21T04:16:00;8.20;77.60
17307;DHT22;8771;48.048;7.682;2024-02-21T04:21:05;8.10;77.60
17307;DHT22;8771;48.048;7.682;2024-02-21T04:26:09;8.00;77.90
17307;DHT22;8771;48.048;7.682;2024-02-21T04:31:12;7.80;78.10
17307;DHT22;8771;48.048;7.682;2024-02-21T04:36:15;7.80;78.40
17307;DHT22;8771;48.048;7.682;2024-02-21T04:41:19;7.70;78.60
17307;DHT22;8771;48.048;7.682;2024-02-21T04:46:22;7.70;78.70
17307;DHT22;8771;48.048;7.682;2024-02-21T04:51:25;7.70;78.60
17307;DHT22;8771;48.048;7.682;2024-02-21T04:56:28;7.70;78.70
17307;DHT22;8771;48.048;7.682;2024-02-21T05:01:30;7.60;78.60
17307;DHT22;8771;48.048;7.682;2024-02-21T05:06:32;7.60;78.70
17307;DHT22;8771;48.048;7.682;2024-02-21T05:11:36;7.50;78.70
17307;DHT22;8771;48.048;7.682;2024-02-21T05:16:39;7.50;78.90
17307;DHT22;8771;48.048;7.682;2024-02-21T05:21:41;7.40;78.90
17307;DHT22;8771;48.048;7.682;2024-02-21T05:26:44;7.40;78.90
17307;DHT22;8771;48.048;7.682;2024-02-21T05:31:56;7.40;78.90
17307;DHT22;8771;48.048;7.682;2024-02-21T05:37:00;7.30;78.90
17307;DHT22;8771;48.048;7.682;2024-02-21T05:42:04;7.30;78.70
17307;DHT22;8771;48.048;7.682;2024-02-21T05:47:07;7.20;78.70
17307;DHT22;8771;48.048;7.682;2024-02-21T05:52:11;7.10;78.70
17307;DHT22;8771;48.048;7.682;2024-02-21T05:57:16;7.00;79.00
17307;DHT22;8771;48.048;7.682;2024-02-21T06:02:19;7.00;79.20
17307;DHT22;8771;48.048;7.682;2024-02-21T06:07:22;7.00;79.20
17307;DHT22;8771;48.048;7.682;2024-02-21T06:12:26;7.00;79.20
17307;DHT22;8771;48.048;7.682;2024-02-21T06:17:28;6.90;79.10
17307;DHT22;8771;48.048;7.682;2024-02-21T06:22:45;6.90;79.00
17307;DHT22;8771;48.048;7.682;2024-02-21T06:27:48;6.90;79.00
17307;DHT22;8771;48.048;7.682;2024-02-21T06:32:50;6.90;78.90
17307;DHT22;8771;48.048;7.682;2024-02-21T06:37:53;6.90;79.00
17307;DHT22;8771;48.048;7.682;2024-02-21T06:42:57;6.80;79.00
17307;DHT22;8771;48.048;7.682;2024-02-21T06:48:00;6.80;79.20
17307;DHT22;8771;48.048;7.682;2024-02-21T06:53:02;6.80;79.30
17307;DHT22;8771;48.048;7.682;2024-02-21T06:58:21;6.80;79.30
17307;DHT22;8771;48.048;7.682;2024-02-21T07:03:22;6.80;79.30
17307;DHT22;8771;48.048;7.682;2024-02-21T07:08:26;6.80;79.30
17307;DHT22;8771;48.048;7.682;2024-02-21T07:13:32;6.90;79.30
17307;DHT22;8771;48.048;7.682;2024-02-21T07:18:35;6.90;79.30
17307;DHT22;8771;48.048;7.682;2024-02-21T07:23:40;7.00;79.30
17307;DHT22;8771;48.048;7.682;2024-02-21T07:28:44;7.10;79.30
17307;DHT22;8771;48.048;7.682;2024-02-21T07:33:47;7.20;79.40
17307;DHT22;8771;48.048;7.682;2024-02-21T07:38:50;7.30;79.30
17307;DHT22;8771;48.048;7.682;2024-02-21T07:43:55;7.40;79.10
17307;DHT22;8771;48.048;7.682;2024-02-21T07:49:00;7.50;79.20
17307;DHT22;8771;48.048;7.682;2024-02-21T07:54:03;7.60;79.20
17307;DHT22;8771;48.048;7.682;2024-02-21T07:59:07;7.70;79.20
17307;DHT22;8771;48.048;7.682;2024-02-21T08:04:10;7.80;79.30
17307;DHT22;8771;48.048;7.682;2024-02-21T08:09:13;8.00;79.30
17307;DHT22;8771;48.048;7.682;2024-02-21T08:14:18;8.10;79.40
17307;DHT22;8771;48.048;7.682;2024-02-21T08:19:20;8.30;79.30
17307;DHT22;8771;48.048;7.682;2024-02-21T08:24:24;8.40;79.10
17307;DHT22;8771;48.048;7.682;2024-02-21T08:29:28;8.60;79.00
17307;DHT22;8771;48.048;7.682;2024-02-21T08:34:31;8.80;78.80
17307;DHT22;8771;48.048;7.682;2024-02-21T08:39:35;8.90;78.60
17307;DHT22;8771;48.048;7.682;2024-02-21T08:44:41;9.10;78.40
17307;DHT22;8771;48.048;7.682;2024-02-21T08:49:44;9.30;78.10
17307;DHT22;8771;48.048;7.682;2024-02-21T08:54:47;9.40;77.70
17307;DHT22;8771;48.048;7.682;2024-02-21T08:59:51;9.60;77.40
17307;DHT22;8771;48.048;7.682;2024-02-21T09:04:56;9.80;77.00
17307;DHT22;8771;48.048;7.682;2024-02-21T09:09:59;9.90;76.80
17307;DHT22;8771;48.048;7.682;2024-02-21T09:15:05;10.10;76.70
17307;DHT22;8771;48.048;7.682;2024-02-21T09:20:08;10.30;76.30
17307;DHT22;8771;48.048;7.682;2024-02-21T09:25:11;10.40;75.90
17307;DHT22;8771;48.048;7.682;2024-02-21T09:30:16;10.50;75.40
17307;DHT22;8771;48.048;7.682;2024-02-21T09:35:19;10.70;75.30
17307;DHT22;8771;48.048;7.682;2024-02-21T09:40:23;10.80;75.00
17307;DHT22;8771;48.048;7.682;2024-02-21T09:45:29;11.00;74.70
17307;DHT22;8771;48.048;7.682;2024-02-21T09:50:32;11.10;74.40
17307;DHT22;8771;48.048;7.682;2024-02-21T09:55:36;11.30;74.10
17307;DHT22;8771;48.048;7.682;2024-02-21T10:00:42;11.50;74.60
17307;DHT22;8771;48.048;7.682;2024-02-21T10:05:48;11.70;73.70
17307;DHT22;8771;48.048;7.682;2024-02-21T10:10:50;11.90;73.30
17307;DHT22;8771;48.048;7.682;2024-02-21T10:16:05;12.00;72.90
17307;DHT22;8771;48.048;7.682;2024-02-21T10:21:08;12.20;73.20
17307;DHT22;8771;48.048;7.682;2024-02-21T10:26:28;12.40;72.20
17307;DHT22;8771;48.048;7.682;2024-02-21T10:31:32;12.60;71.80
17307;DHT22;8771;48.048;7.682;2024-02-21T10:36:36;12.80;71.60
17307;DHT22;8771;48.048;7.682;2024-02-21T10:41:39;12.90;71.40
17307;DHT22;8771;48.048;7.682;2024-02-21T10:46:45;13.10;71.00
17307;DHT22;8771;48.048;7.682;2024-02-21T10:51:48;13.30;70.60
17307;DHT22;8771;48.048;7.682;2024-02-21T10:56:51;13.50;70.30
17307;DHT22;8771;48.048;7.682;2024-02-21T11:01:55;13.60;70.00
17307;DHT22;8771;48.048;7.682;2024-02-21T11:06:57;13.80;69.80
17307;DHT22;8771;48.048;7.682;2024-02-21T11:12:03;14.00;69.30
17307;DHT22;8771;48.048;7.682;2024-02-21T11:17:16;14.20;68.80
17307;DHT22;8771;48.048;7.682;2024-02-21T11:22:20;14.40;68.00
17307;DHT22;8771;48.048;7.682;2024-02-21T11:27:24;14.50;67.70
17307;DHT22;8771;48.048;7.682;2024-02-21T11:32:28;14.70;66.80
17307;DHT22;8771;48.048;7.682;2024-02-21T11:37:32;14.90;65.60
17307;DHT22;8771;48.048;7.682;2024-02-21T11:42:36;15.10;64.70
17307;DHT22;8771;48.048;7.682;2024-02-21T11:47:39;15.30;63.60
17307;DHT22;8771;48.048;7.682;2024-02-21T11:52:58;15.60;62.10
17307;DHT22;8771;48.048;7.682;2024-02-21T11:57:59;15.80;61.10
17307;DHT22;8771;48.048;7.682;2024-02-21T12:03:18;16.00;59.90
17307;DHT22;8771;48.048;7.682;2024-02-21T12:08:20;16.20;58.90
17307;DHT22;8771;48.048;7.682;2024-02-21T12:13:23;16.40;58.20
17307;DHT22;8771;48.048;7.682;2024-02-21T12:18:41;16.50;57.30
17307;DHT22;8771;48.048;7.682;2024-02-21T12:23:44;16.70;56.50
17307;DHT22;8771;48.048;7.682;2024-02-21T12:28:48;16.80;56.10
17307;DHT22;8771;48.048;7.682;2024-02-21T12:33:53;16.90;55.70
17307;DHT22;8771;48.048;7.682;2024-02-21T12:38:55;17.00;55.80
17307;DHT22;8771;48.048;7.682;2024-02-21T12:43:58;17.00;54.90
17307;DHT22;8771;48.048;7.682;2024-02-21T12:49:03;17.00;54.50
17307;DHT22;8771;48.048;7.682;2024-02-21T12:54:06;17.00;54.20
17307;DHT22;8771;48.048;7.682;2024-02-21T12:59:12;16.90;54.10
17307;DHT22;8771;48.048;7.682;2024-02-21T13:04:17;16.90;53.90
17307;DHT22;8771;48.048;7.682;2024-02-21T13:09:19;16.90;53.60
17307;DHT22;8771;48.048;7.682;2024-02-21T13:14:23;16.80;53.40
17307;DHT22;8771;48.048;7.682;2024-02-21T13:19:42;16.80;53.30
17307;DHT22;8771;48.048;7.682;2024-02-21T13:24:58;16.90;53.30
17307;DHT22;8771;48.048;7.682;2024-02-21T13:30:02;16.90;53.20
17307;DHT22;8771;48.048;7.682;2024-02-21T13:35:08;16.80;53.10
17307;DHT22;8771;48.048;7.682;2024-02-21T13:40:13;16.80;53.10
17307;DHT22;8771;48.048;7.682;2024-02-21T13:45:16;16.80;53.10
17307;DHT22;8771;48.048;7.682;2024-02-21T13:50:23;16.80;53.00
17307;DHT22;8771;48.048;7.682;2024-02-21T13:55:26;16.90;52.50
17307;DHT22;8771;48.048;7.682;2024-02-21T14:00:29;17.00;52.50
17307;DHT22;8771;48.048;7.682;2024-02-21T14:05:36;17.00;52.40
17307;DHT22;8771;48.048;7.682;2024-02-21T14:10:38;17.00;52.00
17307;DHT22;8771;48.048;7.682;2024-02-21T14:15:43;16.90;51.90
17307;DHT22;8771;48.048;7.682;2024-02-21T14:20:47;16.80;52.00
17307;DHT22;8771;48.048;7.682;2024-02-21T14:25:51;16.70;52.10
17307;DHT22;8771;48.048;7.682;2024-02-21T14:30:54;16.70;52.40
17307;DHT22;8771;48.048;7.682;2024-02-21T14:36:00;16.60;52.50
17307;DHT22;8771;48.048;7.682;2024-02-21T14:41:04;16.60;52.60
17307;DHT22;8771;48.048;7.682;2024-02-21T14:46:06;16.50;52.60
17307;DHT22;8771;48.048;7.682;2024-02-21T14:51:10;16.50;52.60
17307;DHT22;8771;48.048;7.682;2024-02-21T14:56:13;16.40;52.70
17307;DHT22;8771;48.048;7.682;2024-02-21T15:01:17;16.30;52.80
17307;DHT22;8771;48.048;7.682;2024-02-21T15:06:21;16.20;52.80
17307;DHT22;8771;48.048;7.682;2024-02-21T15:11:24;16.20;52.70
17307;DHT22;8771;48.048;7.682;2024-02-21T15:16:27;16.10;52.70
17307;DHT22;8771;48.048;7.682;2024-02-21T15:21:31;16.00;52.60
17307;DHT22;8771;48.048;7.682;2024-02-21T15:26:34;15.90;52.40
17307;DHT22;8771;48.048;7.682;2024-02-21T15:31:36;15.80;52.40
17307;DHT22;8771;48.048;7.682;2024-02-21T15:36:41;15.70;52.30
17307;DHT22;8771;48.048;7.682;2024-02-21T15:41:44;15.70;52.30
17307;DHT22;8771;48.048;7.682;2024-02-21T15:46:46;15.60;52.50
17307;DHT22;8771;48.048;7.682;2024-02-21T15:51:49;15.50;52.50
17307;DHT22;8771;48.048;7.682;2024-02-21T15:56:51;15.50;52.60
17307;DHT22;8771;48.048;7.682;2024-02-21T16:01:53;15.40;52.70
17307;DHT22;8771;48.048;7.682;2024-02-21T16:06:59;15.30;52.70
17307;DHT22;8771;48.048;7.682;2024-02-21T16:12:01;15.30;52.80
17307;DHT22;8771;48.048;7.682;2024-02-21T16:17:20;15.20;52.90
17307;DHT22;8771;48.048;7.682;2024-02-21T16:22:24;15.20;53.00
17307;DHT22;8771;48.048;7.682;2024-02-21T16:27:41;15.10;53.00
17307;DHT22;8771;48.048;7.682;2024-02-21T16:32:58;15.00;53.20
17307;DHT22;8771;48.048;7.682;2024-02-21T16:38:16;14.90;53.40
17307;DHT22;8771;48.048;7.682;2024-02-21T16:43:19;14.90;53.70
17307;DHT22;8771;48.048;7.682;2024-02-21T16:48:21;14.80;53.90
17307;DHT22;8771;48.048;7.682;2024-02-21T16:53:24;14.70;54.20
17307;DHT22;8771;48.048;7.682;2024-02-21T16:58:26;14.70;54.50
17307;DHT22;8771;48.048;7.682;2024-02-21T17:03:32;14.60;54.70
17307;DHT22;8771;48.048;7.682;2024-02-21T17:08:36;14.50;55.00
17307;DHT22;8771;48.048;7.682;2024-02-21T17:13:39;14.50;55.30
17307;DHT22;8771;48.048;7.682;2024-02-21T17:18:42;14.40;55.50
17307;DHT22;8771;48.048;7.682;2024-02-21T17:23:50;14.30;55.70
17307;DHT22;8771;48.048;7.682;2024-02-21T17:28:53;14.20;55.80
17307;DHT22;8771;48.048;7.682;2024-02-21T17:33:56;14.20;56.00
17307;DHT22;8771;48.048;7.682;2024-02-21T17:39:00;14.10;56.10
17307;DHT22;8771;48.048;7.682;2024-02-21T17:44:03;14.10;56.40
17307;DHT22;8771;48.048;7.682;2024-02-21T17:49:05;14.00;56.60
17307;DHT22;8771;48.048;7.682;2024-02-21T17:54:09;14.00;56.80
17307;DHT22;8771;48.048;7.682;2024-02-21T17:59:12;13.90;57.20
17307;DHT22;8771;48.048;7.682;2024-02-21T18:04:15;13.90;57.60
17307;DHT22;8771;48.048;7.682;2024-02-21T18:09:19;13.90;57.90
17307;DHT22;8771;48.048;7.682;2024-02-21T18:14:21;13.90;58.30
17307;DHT22;8771;48.048;7.682;2024-02-21T18:19:24;13.80;58.50
17307;DHT22;8771;48.048;7.682;2024-02-21T18:24:28;13.70;58.70
17307;DHT22;8771;48.048;7.682;2024-02-21T18:29:31;13.70;59.10
17307;DHT22;8771;48.048;7.682;2024-02-21T18:34:35;13.60;59.30
17307;DHT22;8771;48.048;7.682;2024-02-21T18:39:39;13.60;59.60
17307;DHT22;8771;48.048;7.682;2024-02-21T18:44:42;13.50;59.80
17307;DHT22;8771;48.048;7.682;2024-02-21T18:49:49;13.50;59.90
17307;DHT22;8771;48.048;7.682;2024-02-21T18:54:52;13.50;60.10
17307;DHT22;8771;48.048;7.682;2024-02-21T18:59:55;13.40;59.80
17307;DHT22;8771;48.048;7.682;2024-02-21T19:04:58;13.40;59.50
17307;DHT22;8771;48.048;7.682;2024-02-21T19:10:03;13.50;59.10
17307;DHT22;8771;48.048;7.682;2024-02-21T19:15:06;13.50;58.80
17307;DHT22;8771;48.048;7.682;2024-02-21T19:20:10;13.50;58.60
17307;DHT22;8771;48.048;7.682;2024-02-21T19:25:29;13.60;58.50
17307;DHT22;8771;48.048;7.682;2024-02-21T19:30:46;13.70;58.50
17307;DHT22;8771;48.048;7.682;2024-02-21T19:36:03;13.70;58.40
17307;DHT22;8771;48.048;7.682;2024-02-21T19:41:07;13.70;58.20
17307;DHT22;8771;48.048;7.682;2024-02-21T19:46:10;13.70;58.00
17307;DHT22;8771;48.048;7.682;2024-02-21T19:51:13;13.70;57.90
17307;DHT22;8771;48.048;7.682;2024-02-21T19:56:18;13.70;57.90
17307;DHT22;8771;48.048;7.682;2024-02-21T20:01:21;13.70;58.00
17307;DHT22;8771;48.048;7.682;2024-02-21T20:06:24;13.70;58.00
17307;DHT22;8771;48.048;7.682;2024-02-21T20:11:27;13.70;58.10
17307;DHT22;8771;48.048;7.682;2024-02-21T20:16:45;13.60;58.10
17307;DHT22;8771;48.048;7.682;2024-02-21T20:21:51;13.60;58.20
17307;DHT22;8771;48.048;7.682;2024-02-21T20:26:56;13.60;58.20
17307;DHT22;8771;48.048;7.682;2024-02-21T20:31:59;13.60;58.10
17307;DHT22;8771;48.048;7.682;2024-02-21T20:37:02;13.60;58.20
17307;DHT22;8771;48.048;7.682;2024-02-21T20:42:08;13.60;58.20
17307;DHT22;8771;48.048;7.682;2024-02-21T20:47:11;13.60;58.20
17307;DHT22;8771;48.048;7.682;2024-02-21T20:52:14;13.60;58.10
17307;DHT22;8771;48.048;7.682;2024-02-21T20:57:18;13.60;58.10
17307;DHT22;8771;48.048;7.682;2024-02-21T21:02:21;13.60;58.00
17307;DHT22;8771;48.048;7.682;2024-02-21T21:07:25;13.60;58.00
17307;DHT22;8771;48.048;7.682;2024-02-21T21:12:31;13.60;58.00
17307;DHT22;8771;48.048;7.682;2024-02-21T21:17:34;13.60;58.00
17307;DHT22;8771;48.048;7.682;2024-02-21T21:22:37;13.50;57.90
17307;DHT22;8771;48.048;7.682;2024-02-21T21:27:42;13.60;57.80
17307;DHT22;8771;48.048;7.682;2024-02-21T21:32:46;13.50;57.50
17307;DHT22;8771;48.048;7.682;2024-02-21T21:37:50;13.50;57.40
17307;DHT22;8771;48.048;7.682;2024-02-21T21:42:54;13.50;57.20
17307;DHT22;8771;48.048;7.682;2024-02-21T21:47:57;13.60;57.10
17307;DHT22;8771;48.048;7.682;2024-02-21T21:53:00;13.60;57.10
17307;DHT22;8771;48.048;7.682;2024-02-21T21:58:05;13.60;57.00
17307;DHT22;8771;48.048;7.682;2024-02-21T22:03:09;13.60;56.80
17307;DHT22;8771;48.048;7.682;2024-02-21T22:08:14;13.60;56.70
17307;DHT22;8771;48.048;7.682;2024-02-21T22:13:18;13.70;56.70
17307;DHT22;8771;48.048;7.682;2024-02-21T22:18:21;13.70;56.60
17307;DHT22;8771;48.048;7.682;2024-02-21T22:23:24;13.70;56.50
17307;DHT22;8771;48.048;7.682;2024-02-21T22:28:28;13.70;56.50
17307;DHT22;8771;48.048;7.682;2024-02-21T22:33:31;13.70;56.50
17307;DHT22;8771;48.048;7.682;2024-02-21T22:38:34;13.70;56.60
17307;DHT22;8771;48.048;7.682;2024-02-21T22:43:38;13.70;56.60
17307;DHT22;8771;48.048;7.682;2024-02-21T22:48:41;13.70;56.60
17307;DHT22;8771;48.048;7.682;2024-02-21T22:53:44;13.70;56.60
17307;DHT22;8771;48.048;7.682;2024-02-21T22:58:48;13.70;56.60
17307;DHT22;8771;48.048;7.682;2024-02-21T23:03:52;13.70;56.50
17307;DHT22;8771;48.048;7.682;2024-02-21T23:08:55;13.70;56.50
17307;DHT22;8771;48.048;7.682;2024-02-21T23:14:01;13.70;56.50
17307;DHT22;8771;48.048;7.682;2024-02-21T23:19:03;13.70;56.50
17307;DHT22;8771;48.048;7.682;2024-02-21T23:24:06;13.70;56.60
17307;DHT22;8771;48.048;7.682;2024-02-21T23:29:10;13.70;56.80
17307;DHT22;8771;48.048;7.682;2024-02-21T23:34:12;13.70;56.90
17307;DHT22;8771;48.048;7.682;2024-02-21T23:39:15;13.70;57.10
17307;DHT22;8771;48.048;7.682;2024-02-21T23:44:20;13.70;57.20
17307;DHT22;8771;48.048;7.682;2024-02-21T23:49:23;13.60;57.40
17307;DHT22;8771;48.048;7.682;2024-02-21T23:54:27;13.60;57.60
17307;DHT22;8771;48.048;7.682;2024-02-21T23:59:34;13.60;58.10
